Bly, North Carolina
Current Conditions -  °F | °C
As of 5:15 PM on Sunday 25 Jan 2015 (Local Time) from KGEV Reporting Station
Clear Clear  
Wind Chill: 40°   Ceiling: Unl
Heat Index: 42°   Visibility: 10mi
Dew Point: 26°   Wind: 5mph
Humidity: 52%   Direction: 130°SE
Pressure: 29.72"   Gusts: NA
Location:  36.524°N, 81.538°W
Report Text: KGEV 252215Z AUTO 13004KT 10SM CLR 06/M03 A2972 RMK AO2 T00581034
Loading
Personal Weather Stations






























Interactive Weather Map New forecast layout! Learn more

10-Day Weather Forecast

Advertisements
Track Severe Weather on mobile